Aérodrome :
LOGIN :

S'inscrire | Disclaimer

   EN    FR    IT 

 










Légende :    VFR   VFR Marginal   IFR   IFR Intensif   IFR Très Intensif
Visi : 
Plafond : 
>= 8 km
>= 3000ft
5 à 8 km
1000 à 3000 ft
1500m à 5 km
500 à 1000 ft
800 à 1500m
200 à 500 ft
< 800m
< 200 ft
Symboles :   Orages  Brouillard  Fortes neiges  Fortes précipitations  Vent > 20 kt
SIGMETs :   Divers  Orages  Givrage  Turbulence  Onde Orograph.  Cendres Volcan.






- Altitude de l'aérodrome : 326 ft
- Code IATA : LCG


LECO - A Coruna

DERNIER METAR :
  • 201830Z 01005KT 320V060 9999 SCT008 BKN018 10/10 Q1028 NOSIG

METARs EXPIRÉS :
  • 201800Z 04007KT 340V110 5000 2000S DZ BCFG SCT007 BKN012 BKN017 11/10 Q1028 NOSIG
  • 201739Z 36004KT 300V090 3000 BR BCFG BKN010 BKN015 11/11 Q1027 NOSIG
  • 201700Z 35007KT 330V030 5000 2000S BR SCT008 BKN015 BKN022 11/11 Q1027 NOSIG
  • 201630Z 01006KT 330V060 9999 SCT012 BKN026 13/10 Q1027 NOSIG
  • 201600Z 35006KT 310V050 9999 SCT032 BKN038 13/09 Q1026 NOSIG

TAF TAF LECO
Valide du 20 à 15h jusqu'au 21 à 15h UTC


201400Z 2015/2115 33009KT 9999 SCT015 BKN030 TX15/2114Z TN05/2106Z
PROB40
TEMPO 2015/2021 3000 -RADZ BKN012



MET'MAP, la Météo Aéronautique d'un coup d'oeil ! - Copyright ORBIFLY Décembre 2007 - Disclaimer

ORBIFLY MET'MAP TEAM :

Programmation & Développement : Alexandra Zaïnal
Sur une idée originale de : Baudouin d'Aumeries
Assistance à la programmation : Marc-Olivier Méhu
Soutien technique & logistique : Manuel Goepfert

Contact : metmap@orbifly.com




SOURCES & CREDITS :

   NOAA